sensor_id;sensor_type;location;lat;lon;timestamp;pressure;altitude;pressure_sealevel;temperature;humidity
35507;BME280;36461;52.018;21.036;2022-12-18T00:01:25;101620.63;;;-4.01;89.63
35507;BME280;36461;52.018;21.036;2022-12-18T00:03:48;101622.51;;;-3.97;89.88
35507;BME280;36461;52.018;21.036;2022-12-18T00:06:15;101628.27;;;-3.91;90.02
35507;BME280;36461;52.018;21.036;2022-12-18T00:08:43;101625.34;;;-3.91;89.89
35507;BME280;36461;52.018;21.036;2022-12-18T00:11:20;101641.01;;;-3.90;90.04
35507;BME280;36461;52.018;21.036;2022-12-18T00:13:50;101645.12;;;-3.83;90.31
35507;BME280;36461;52.018;21.036;2022-12-18T00:16:20;101644.77;;;-3.81;90.17
35507;BME280;36461;52.018;21.036;2022-12-18T00:18:50;101643.37;;;-3.84;90.11
35507;BME280;36461;52.018;21.036;2022-12-18T00:21:20;101646.04;;;-3.81;90.15
35507;BME280;36461;52.018;21.036;2022-12-18T00:23:48;101650.50;;;-3.85;90.01
35507;BME280;36461;52.018;21.036;2022-12-18T00:26:29;101646.14;;;-3.80;90.17
35507;BME280;36461;52.018;21.036;2022-12-18T00:29:00;101649.41;;;-3.82;90.13
35507;BME280;36461;52.018;21.036;2022-12-18T00:31:30;101649.67;;;-3.76;90.12
35507;BME280;36461;52.018;21.036;2022-12-18T00:33:58;101655.56;;;-3.77;90.07
35507;BME280;36461;52.018;21.036;2022-12-18T00:36:34;101659.44;;;-3.76;90.00
35507;BME280;36461;52.018;21.036;2022-12-18T00:39:03;101659.16;;;-3.72;90.19
35507;BME280;36461;52.018;21.036;2022-12-18T00:41:31;101659.44;;;-3.76;89.99
35507;BME280;36461;52.018;21.036;2022-12-18T00:44:17;101667.91;;;-3.75;90.24
35507;BME280;36461;52.018;21.036;2022-12-18T00:46:44;101670.58;;;-3.72;90.32
35507;BME280;36461;52.018;21.036;2022-12-18T00:49:12;101677.27;;;-3.74;89.76
35507;BME280;36461;52.018;21.036;2022-12-18T00:51:39;101682.52;;;-3.79;89.83
35507;BME280;36461;52.018;21.036;2022-12-18T00:54:06;101681.38;;;-3.76;90.12
35507;BME280;36461;52.018;21.036;2022-12-18T00:56:35;101675.11;;;-3.75;90.21
35507;BME280;36461;52.018;21.036;2022-12-18T00:59:03;101690.56;;;-3.70;90.48
35507;BME280;36461;52.018;21.036;2022-12-18T01:01:31;101693.41;;;-3.64;90.64
35507;BME280;36461;52.018;21.036;2022-12-18T01:04:00;101697.66;;;-3.63;90.27
35507;BME280;36461;52.018;21.036;2022-12-18T01:06:28;101688.46;;;-3.61;90.36
35507;BME280;36461;52.018;21.036;2022-12-18T01:08:55;101697.28;;;-3.62;90.20
35507;BME280;36461;52.018;21.036;2022-12-18T01:11:22;101699.09;;;-3.60;90.19
35507;BME280;36461;52.018;21.036;2022-12-18T01:13:49;101701.63;;;-3.60;90.30
35507;BME280;36461;52.018;21.036;2022-12-18T01:16:16;101706.77;;;-3.58;90.35
35507;BME280;36461;52.018;21.036;2022-12-18T01:18:44;101711.44;;;-3.58;90.37
35507;BME280;36461;52.018;21.036;2022-12-18T01:21:14;101709.45;;;-3.55;90.46
35507;BME280;36461;52.018;21.036;2022-12-18T01:23:44;101715.48;;;-3.53;90.38
35507;BME280;36461;52.018;21.036;2022-12-18T01:26:14;101714.94;;;-3.56;90.25
35507;BME280;36461;52.018;21.036;2022-12-18T01:28:43;101717.92;;;-3.55;90.46
35507;BME280;36461;52.018;21.036;2022-12-18T01:31:21;101720.34;;;-3.48;90.68
35507;BME280;36461;52.018;21.036;2022-12-18T01:33:56;101717.97;;;-3.45;90.76
35507;BME280;36461;52.018;21.036;2022-12-18T01:36:25;101719.31;;;-3.43;90.71
35507;BME280;36461;52.018;21.036;2022-12-18T01:38:55;101725.97;;;-3.45;90.47
35507;BME280;36461;52.018;21.036;2022-12-18T01:41:25;101724.63;;;-3.47;90.12
35507;BME280;36461;52.018;21.036;2022-12-18T01:43:57;101729.98;;;-3.50;90.03
35507;BME280;36461;52.018;21.036;2022-12-18T01:46:25;101741.41;;;-3.50;90.20
35507;BME280;36461;52.018;21.036;2022-12-18T01:48:57;101735.06;;;-3.50;90.14
35507;BME280;36461;52.018;21.036;2022-12-18T01:51:25;101736.47;;;-3.47;90.47
35507;BME280;36461;52.018;21.036;2022-12-18T01:53:53;101736.42;;;-3.39;90.78
35507;BME280;36461;52.018;21.036;2022-12-18T01:56:20;101747.44;;;-3.39;90.61
35507;BME280;36461;52.018;21.036;2022-12-18T01:59:03;101745.92;;;-3.35;90.54
35507;BME280;36461;52.018;21.036;2022-12-18T02:01:32;101752.61;;;-3.37;90.46
35507;BME280;36461;52.018;21.036;2022-12-18T02:04:21;101759.88;;;-3.35;90.71
35507;BME280;36461;52.018;21.036;2022-12-18T02:07:01;101759.23;;;-3.31;90.76
35507;BME280;36461;52.018;21.036;2022-12-18T02:09:50;101769.52;;;-3.28;90.54
35507;BME280;36461;52.018;21.036;2022-12-18T02:12:27;101775.08;;;-3.27;90.54
35507;BME280;36461;52.018;21.036;2022-12-18T02:15:17;101776.69;;;-3.29;90.23
35507;BME280;36461;52.018;21.036;2022-12-18T02:18:02;101781.77;;;-3.29;90.44
35507;BME280;36461;52.018;21.036;2022-12-18T02:20:44;101786.69;;;-3.32;90.38
35507;BME280;36461;52.018;21.036;2022-12-18T02:23:23;101782.31;;;-3.26;90.90
35507;BME280;36461;52.018;21.036;2022-12-18T02:26:20;101792.98;;;-3.24;90.93
35507;BME280;36461;52.018;21.036;2022-12-18T02:29:10;101792.67;;;-3.22;90.96
35507;BME280;36461;52.018;21.036;2022-12-18T02:31:51;101798.30;;;-3.19;90.64
35507;BME280;36461;52.018;21.036;2022-12-18T02:34:20;101804.10;;;-3.22;90.46
35507;BME280;36461;52.018;21.036;2022-12-18T02:36:51;101800.84;;;-3.19;90.89
35507;BME280;36461;52.018;21.036;2022-12-18T02:39:20;101801.31;;;-3.18;90.73
35507;BME280;36461;52.018;21.036;2022-12-18T02:41:50;101799.20;;;-3.09;91.20
35507;BME280;36461;52.018;21.036;2022-12-18T02:44:18;101806.96;;;-3.06;91.16
35507;BME280;36461;52.018;21.036;2022-12-18T02:46:48;101815.72;;;-3.09;90.48
35507;BME280;36461;52.018;21.036;2022-12-18T02:49:49;101814.35;;;-3.10;90.44
35507;BME280;36461;52.018;21.036;2022-12-18T02:57:48;101824.24;;;-3.16;90.48
35507;BME280;36461;52.018;21.036;2022-12-18T03:00:24;101823.45;;;-3.15;90.59
35507;BME280;36461;52.018;21.036;2022-12-18T03:02:57;101834.23;;;-3.11;90.71
35507;BME280;36461;52.018;21.036;2022-12-18T03:05:37;101836.05;;;-3.09;90.89
35507;BME280;36461;52.018;21.036;2022-12-18T03:08:08;101837.86;;;-3.06;90.82
35507;BME280;36461;52.018;21.036;2022-12-18T03:10:44;101840.05;;;-3.04;90.57
35507;BME280;36461;52.018;21.036;2022-12-18T03:13:15;101844.34;;;-3.03;90.84
35507;BME280;36461;52.018;21.036;2022-12-18T03:15:46;101849.63;;;-2.98;90.96
35507;BME280;36461;52.018;21.036;2022-12-18T03:18:22;101856.05;;;-2.97;90.78
35507;BME280;36461;52.018;21.036;2022-12-18T03:20:49;101853.98;;;-2.96;90.89
35507;BME280;36461;52.018;21.036;2022-12-18T03:23:22;101864.02;;;-2.99;90.64
35507;BME280;36461;52.018;21.036;2022-12-18T03:25:54;101864.73;;;-3.01;90.61
35507;BME280;36461;52.018;21.036;2022-12-18T03:28:23;101868.95;;;-3.02;90.59
35507;BME280;36461;52.018;21.036;2022-12-18T03:30:55;101870.55;;;-3.04;90.38
35507;BME280;36461;52.018;21.036;2022-12-18T03:33:30;101871.74;;;-3.06;90.35
35507;BME280;36461;52.018;21.036;2022-12-18T03:36:08;101876.27;;;-3.08;90.38
35507;BME280;36461;52.018;21.036;2022-12-18T03:38:35;101874.94;;;-3.10;90.11
35507;BME280;36461;52.018;21.036;2022-12-18T03:43:54;101881.39;;;-3.16;90.26
35507;BME280;36461;52.018;21.036;2022-12-18T03:46:26;101880.78;;;-3.21;90.00
35507;BME280;36461;52.018;21.036;2022-12-18T03:48:59;101889.42;;;-3.25;90.09
35507;BME280;36461;52.018;21.036;2022-12-18T03:51:45;101889.11;;;-3.23;90.41
35507;BME280;36461;52.018;21.036;2022-12-18T03:54:20;101885.06;;;-3.19;90.35
35507;BME280;36461;52.018;21.036;2022-12-18T03:56:53;101896.70;;;-3.15;90.52
35507;BME280;36461;52.018;21.036;2022-12-18T03:59:22;101889.80;;;-3.17;90.36
35507;BME280;36461;52.018;21.036;2022-12-18T04:01:51;101899.31;;;-3.13;90.41
35507;BME280;36461;52.018;21.036;2022-12-18T04:04:20;101906.07;;;-3.14;90.34
35507;BME280;36461;52.018;21.036;2022-12-18T04:06:48;101904.80;;;-3.14;90.30
35507;BME280;36461;52.018;21.036;2022-12-18T04:09:18;101911.70;;;-3.11;90.48
35507;BME280;36461;52.018;21.036;2022-12-18T04:11:46;101909.09;;;-3.13;90.20
35507;BME280;36461;52.018;21.036;2022-12-18T04:14:14;101922.82;;;-3.17;89.96
35507;BME280;36461;52.018;21.036;2022-12-18T04:16:41;101925.30;;;-3.19;90.21
35507;BME280;36461;52.018;21.036;2022-12-18T04:19:09;101925.77;;;-3.18;90.22
35507;BME280;36461;52.018;21.036;2022-12-18T04:21:38;101924.23;;;-3.14;90.36
35507;BME280;36461;52.018;21.036;2022-12-18T04:24:05;101925.77;;;-3.18;89.90
35507;BME280;36461;52.018;21.036;2022-12-18T04:26:33;101923.16;;;-3.19;89.94
35507;BME280;36461;52.018;21.036;2022-12-18T04:29:11;101926.80;;;-3.23;89.99
35507;BME280;36461;52.018;21.036;2022-12-18T04:31:38;101934.83;;;-3.23;89.97
35507;BME280;36461;52.018;21.036;2022-12-18T04:34:05;101945.78;;;-3.24;90.11
35507;BME280;36461;52.018;21.036;2022-12-18T04:36:33;101938.87;;;-3.27;90.12
35507;BME280;36461;52.018;21.036;2022-12-18T04:39:00;101951.20;;;-3.26;90.37
35507;BME280;36461;52.018;21.036;2022-12-18T04:41:26;101960.16;;;-3.25;90.24
35507;BME280;36461;52.018;21.036;2022-12-18T04:43:53;101958.95;;;-3.23;90.40
35507;BME280;36461;52.018;21.036;2022-12-18T04:46:20;101956.90;;;-3.22;90.20
35507;BME280;36461;52.018;21.036;2022-12-18T04:48:46;101959.34;;;-3.24;90.18
35507;BME280;36461;52.018;21.036;2022-12-18T04:51:13;101973.72;;;-3.24;90.19
35507;BME280;36461;52.018;21.036;2022-12-18T04:53:40;101969.83;;;-3.26;90.13
35507;BME280;36461;52.018;21.036;2022-12-18T04:56:14;101968.87;;;-3.28;89.95
35507;BME280;36461;52.018;21.036;2022-12-18T04:58:39;101974.29;;;-3.30;89.99
35507;BME280;36461;52.018;21.036;2022-12-18T05:01:07;101967.53;;;-3.29;90.07
35507;BME280;36461;52.018;21.036;2022-12-18T05:03:35;101975.56;;;-3.30;90.10
35507;BME280;36461;52.018;21.036;2022-12-18T05:06:03;101986.98;;;-3.30;90.05
35507;BME280;36461;52.018;21.036;2022-12-18T05:08:31;101982.69;;;-3.31;89.96
35507;BME280;36461;52.018;21.036;2022-12-18T05:11:03;102002.37;;;-3.27;90.13
35507;BME280;36461;52.018;21.036;2022-12-18T05:13:33;102003.98;;;-3.29;89.84
35507;BME280;36461;52.018;21.036;2022-12-18T05:16:00;102003.98;;;-3.37;89.56
35507;BME280;36461;52.018;21.036;2022-12-18T05:18:27;102006.34;;;-3.40;89.56
35507;BME280;36461;52.018;21.036;2022-12-18T05:20:54;102006.98;;;-3.44;89.40
35507;BME280;36461;52.018;21.036;2022-12-18T05:23:23;102014.38;;;-3.49;89.16
35507;BME280;36461;52.018;21.036;2022-12-18T05:28:27;102012.55;;;-3.51;89.23
35507;BME280;36461;52.018;21.036;2022-12-18T05:30:57;102019.98;;;-3.55;88.92
35507;BME280;36461;52.018;21.036;2022-12-18T05:33:27;102032.53;;;-3.66;88.35
35507;BME280;36461;52.018;21.036;2022-12-18T05:36:02;102025.84;;;-3.80;88.14
35507;BME280;36461;52.018;21.036;2022-12-18T05:38:31;102028.02;;;-3.80;88.60
35507;BME280;36461;52.018;21.036;2022-12-18T05:40:58;102030.77;;;-3.83;88.46
35507;BME280;36461;52.018;21.036;2022-12-18T05:43:26;102039.50;;;-3.86;88.44
35507;BME280;36461;52.018;21.036;2022-12-18T05:45:54;102038.59;;;-3.95;88.46
35507;BME280;36461;52.018;21.036;2022-12-18T05:48:23;102034.08;;;-3.93;88.68
35507;BME280;36461;52.018;21.036;2022-12-18T05:50:49;102041.77;;;-3.91;88.79
35507;BME280;36461;52.018;21.036;2022-12-18T05:53:19;102034.86;;;-3.94;88.67
35507;BME280;36461;52.018;21.036;2022-12-18T05:55:46;102041.76;;;-3.99;88.70
35507;BME280;36461;52.018;21.036;2022-12-18T05:58:13;102048.02;;;-4.01;88.59
35507;BME280;36461;52.018;21.036;2022-12-18T06:00:40;102046.34;;;-4.00;88.89
35507;BME280;36461;52.018;21.036;2022-12-18T06:03:09;102050.23;;;-3.99;89.00
35507;BME280;36461;52.018;21.036;2022-12-18T06:05:39;102055.01;;;-3.97;89.28
35507;BME280;36461;52.018;21.036;2022-12-18T06:08:07;102067.14;;;-3.91;89.35
35507;BME280;36461;52.018;21.036;2022-12-18T06:10:34;102072.78;;;-3.89;89.44
35507;BME280;36461;52.018;21.036;2022-12-18T06:13:01;102083.49;;;-3.86;89.15
35507;BME280;36461;52.018;21.036;2022-12-18T06:15:27;102087.22;;;-3.88;89.28
35507;BME280;36461;52.018;21.036;2022-12-18T06:17:54;102090.40;;;-3.83;89.12
35507;BME280;36461;52.018;21.036;2022-12-18T06:20:20;102093.72;;;-3.84;89.25
35507;BME280;36461;52.018;21.036;2022-12-18T06:22:47;102097.23;;;-3.82;89.42
35507;BME280;36461;52.018;21.036;2022-12-18T06:25:14;102105.00;;;-3.79;89.35
35507;BME280;36461;52.018;21.036;2022-12-18T06:27:40;102106.27;;;-3.79;89.13
35507;BME280;36461;52.018;21.036;2022-12-18T06:30:08;102110.93;;;-3.79;89.34
35507;BME280;36461;52.018;21.036;2022-12-18T06:32:35;102121.20;;;-3.77;89.22
35507;BME280;36461;52.018;21.036;2022-12-18T06:35:03;102120.14;;;-3.81;88.82
35507;BME280;36461;52.018;21.036;2022-12-18T06:37:30;102130.67;;;-3.81;89.03
35507;BME280;36461;52.018;21.036;2022-12-18T06:39:57;102137.64;;;-3.85;88.74
35507;BME280;36461;52.018;21.036;2022-12-18T06:42:24;102136.77;;;-3.86;88.98
35507;BME280;36461;52.018;21.036;2022-12-18T06:44:51;102142.98;;;-3.81;89.17
35507;BME280;36461;52.018;21.036;2022-12-18T06:47:18;102153.91;;;-3.82;89.27
35507;BME280;36461;52.018;21.036;2022-12-18T06:49:44;102155.39;;;-3.85;88.75
35507;BME280;36461;52.018;21.036;2022-12-18T06:52:11;102166.73;;;-3.87;88.71
35507;BME280;36461;52.018;21.036;2022-12-18T06:54:37;102169.67;;;-3.88;89.04
35507;BME280;36461;52.018;21.036;2022-12-18T06:57:04;102172.53;;;-3.81;89.34
35507;BME280;36461;52.018;21.036;2022-12-18T06:59:30;102166.88;;;-3.77;89.26
35507;BME280;36461;52.018;21.036;2022-12-18T07:01:56;102171.95;;;-3.77;89.06
35507;BME280;36461;52.018;21.036;2022-12-18T07:04:28;102167.33;;;-3.76;89.12
35507;BME280;36461;52.018;21.036;2022-12-18T07:06:55;102180.02;;;-3.76;89.02
35507;BME280;36461;52.018;21.036;2022-12-18T07:09:22;102180.77;;;-3.71;89.34
35507;BME280;36461;52.018;21.036;2022-12-18T07:11:48;102179.58;;;-3.69;88.96
35507;BME280;36461;52.018;21.036;2022-12-18T07:14:15;102182.05;;;-3.71;88.83
35507;BME280;36461;52.018;21.036;2022-12-18T07:16:41;102194.48;;;-3.67;89.02
35507;BME280;36461;52.018;21.036;2022-12-18T07:19:08;102193.47;;;-3.71;88.54
35507;BME280;36461;52.018;21.036;2022-12-18T07:21:35;102202.56;;;-3.74;88.53
35507;BME280;36461;52.018;21.036;2022-12-18T07:24:01;102206.28;;;-3.76;88.60
35507;BME280;36461;52.018;21.036;2022-12-18T07:26:28;102210.09;;;-3.76;88.55
35507;BME280;36461;52.018;21.036;2022-12-18T07:28:56;102212.30;;;-3.74;88.94
35507;BME280;36461;52.018;21.036;2022-12-18T07:31:25;102213.44;;;-3.68;88.82
35507;BME280;36461;52.018;21.036;2022-12-18T07:33:52;102225.13;;;-3.64;89.01
35507;BME280;36461;52.018;21.036;2022-12-18T07:36:19;102222.34;;;-3.60;88.99
35507;BME280;36461;52.018;21.036;2022-12-18T07:38:48;102222.55;;;-3.57;89.05
35507;BME280;36461;52.018;21.036;2022-12-18T07:41:16;102220.73;;;-3.51;89.09
35507;BME280;36461;52.018;21.036;2022-12-18T07:43:44;102225.55;;;-3.48;88.80
35507;BME280;36461;52.018;21.036;2022-12-18T07:46:11;102231.91;;;-3.48;89.30
35507;BME280;36461;52.018;21.036;2022-12-18T07:48:42;102234.23;;;-3.44;88.83
35507;BME280;36461;52.018;21.036;2022-12-18T07:51:12;102241.14;;;-3.42;88.98
35507;BME280;36461;52.018;21.036;2022-12-18T07:53:39;102234.23;;;-3.44;88.67
35507;BME280;36461;52.018;21.036;2022-12-18T07:56:09;102237.73;;;-3.42;89.16
35507;BME280;36461;52.018;21.036;2022-12-18T07:58:36;102243.63;;;-3.35;89.02
35507;BME280;36461;52.018;21.036;2022-12-18T08:01:09;102251.18;;;-3.28;89.34
35507;BME280;36461;52.018;21.036;2022-12-18T08:03:38;102252.09;;;-3.19;89.47
35507;BME280;36461;52.018;21.036;2022-12-18T08:06:08;102254.72;;;-3.10;89.71
35507;BME280;36461;52.018;21.036;2022-12-18T08:08:36;102260.11;;;-3.04;89.59
35507;BME280;36461;52.018;21.036;2022-12-18T08:11:03;102266.40;;;-2.97;89.60
35507;BME280;36461;52.018;21.036;2022-12-18T08:13:30;102268.80;;;-2.92;89.19
35507;BME280;36461;52.018;21.036;2022-12-18T08:16:07;102278.51;;;-2.93;88.78
35507;BME280;36461;52.018;21.036;2022-12-18T08:18:34;102281.76;;;-2.95;88.73
35507;BME280;36461;52.018;21.036;2022-12-18T08:21:13;102282.62;;;-2.87;88.72
35507;BME280;36461;52.018;21.036;2022-12-18T08:23:50;102281.20;;;-2.90;88.40
35507;BME280;36461;52.018;21.036;2022-12-18T08:26:17;102289.53;;;-2.92;88.15
35507;BME280;36461;52.018;21.036;2022-12-18T08:28:45;102296.20;;;-2.86;88.59
35507;BME280;36461;52.018;21.036;2022-12-18T08:31:14;102291.05;;;-2.79;88.60
35507;BME280;36461;52.018;21.036;2022-12-18T08:33:41;102300.05;;;-2.78;88.28
35507;BME280;36461;52.018;21.036;2022-12-18T08:36:08;102300.84;;;-2.79;88.27
35507;BME280;36461;52.018;21.036;2022-12-18T08:38:35;102304.80;;;-2.76;88.26
35507;BME280;36461;52.018;21.036;2022-12-18T08:41:03;102316.32;;;-2.74;88.30
35507;BME280;36461;52.018;21.036;2022-12-18T08:43:34;102318.00;;;-2.75;88.13
35507;BME280;36461;52.018;21.036;2022-12-18T08:46:21;102318.72;;;-2.61;88.62
35507;BME280;36461;52.018;21.036;2022-12-18T08:48:52;102318.13;;;-2.48;88.62
35507;BME280;36461;52.018;21.036;2022-12-18T08:51:20;102313.82;;;-2.41;88.54
35507;BME280;36461;52.018;21.036;2022-12-18T08:53:47;102312.85;;;-2.43;87.98
35507;BME280;36461;52.018;21.036;2022-12-18T08:56:14;102317.38;;;-2.46;87.79
35507;BME280;36461;52.018;21.036;2022-12-18T08:58:41;102313.19;;;-2.45;87.88
35507;BME280;36461;52.018;21.036;2022-12-18T09:01:10;102321.04;;;-2.49;87.20
35507;BME280;36461;52.018;21.036;2022-12-18T09:03:38;102315.95;;;-2.57;86.93
35507;BME280;36461;52.018;21.036;2022-12-18T09:06:06;102323.51;;;-2.59;87.00
35507;BME280;36461;52.018;21.036;2022-12-18T09:08:32;102331.13;;;-2.59;86.71
35507;BME280;36461;52.018;21.036;2022-12-18T09:10:59;102332.48;;;-2.57;86.70
35507;BME280;36461;52.018;21.036;2022-12-18T09:13:27;102325.27;;;-2.58;86.73
35507;BME280;36461;52.018;21.036;2022-12-18T09:15:54;102332.11;;;-2.48;86.68
35507;BME280;36461;52.018;21.036;2022-12-18T09:18:23;102337.09;;;-2.50;86.36
35507;BME280;36461;52.018;21.036;2022-12-18T09:20:50;102353.80;;;-2.47;86.52
35507;BME280;36461;52.018;21.036;2022-12-18T09:23:19;102352.61;;;-2.45;86.63
35507;BME280;36461;52.018;21.036;2022-12-18T09:25:47;102359.04;;;-2.44;86.67
35507;BME280;36461;52.018;21.036;2022-12-18T09:28:17;102359.52;;;-2.43;86.82
35507;BME280;36461;52.018;21.036;2022-12-18T09:30:47;102352.61;;;-2.45;86.56
35507;BME280;36461;52.018;21.036;2022-12-18T09:33:15;102361.02;;;-2.46;86.88
35507;BME280;36461;52.018;21.036;2022-12-18T09:35:44;102358.11;;;-2.38;87.30
35507;BME280;36461;52.018;21.036;2022-12-18T09:38:17;102360.23;;;-2.29;87.09
35507;BME280;36461;52.018;21.036;2022-12-18T09:40:52;102352.75;;;-2.26;87.11
35507;BME280;36461;52.018;21.036;2022-12-18T09:43:27;102357.84;;;-2.26;86.89
35507;BME280;36461;52.018;21.036;2022-12-18T09:46:05;102365.66;;;-2.23;86.95
35507;BME280;36461;52.018;21.036;2022-12-18T09:48:40;102365.48;;;-2.26;86.35
35507;BME280;36461;52.018;21.036;2022-12-18T09:51:20;102362.07;;;-2.26;86.39
35507;BME280;36461;52.018;21.036;2022-12-18T09:53:59;102361.02;;;-2.22;86.40
35507;BME280;36461;52.018;21.036;2022-12-18T09:56:29;102364.88;;;-2.13;86.35
35507;BME280;36461;52.018;21.036;2022-12-18T09:59:02;102363.11;;;-2.14;86.23
35507;BME280;36461;52.018;21.036;2022-12-18T10:01:32;102365.58;;;-2.08;86.32
35507;BME280;36461;52.018;21.036;2022-12-18T10:04:00;102367.07;;;-2.03;86.44
35507;BME280;36461;52.018;21.036;2022-12-18T10:06:32;102357.36;;;-1.94;86.80
35507;BME280;36461;52.018;21.036;2022-12-18T10:09:18;102354.35;;;-1.87;86.42
35507;BME280;36461;52.018;21.036;2022-12-18T10:14:54;102366.09;;;-1.80;85.86
35507;BME280;36461;52.018;21.036;2022-12-18T10:17:38;102373.36;;;-1.80;85.63
35507;BME280;36461;52.018;21.036;2022-12-18T10:20:31;102379.70;;;-1.72;85.80
35507;BME280;36461;52.018;21.036;2022-12-18T10:28:34;102383.27;;;-1.68;85.52
35507;BME280;36461;52.018;21.036;2022-12-18T10:31:02;102385.00;;;-1.59;85.66
35507;BME280;36461;52.018;21.036;2022-12-18T10:33:33;102386.13;;;-1.62;85.26
35507;BME280;36461;52.018;21.036;2022-12-18T10:36:00;102389.71;;;-1.58;85.49
35507;BME280;36461;52.018;21.036;2022-12-18T10:38:29;102386.20;;;-1.60;84.87
35507;BME280;36461;52.018;21.036;2022-12-18T10:43:38;102380.55;;;-1.63;84.79
35507;BME280;36461;52.018;21.036;2022-12-18T10:51:29;102382.63;;;-1.56;84.37
35507;BME280;36461;52.018;21.036;2022-12-18T10:54:05;102385.48;;;-1.58;84.41
35507;BME280;36461;52.018;21.036;2022-12-18T10:56:36;102383.70;;;-1.50;84.76
35507;BME280;36461;52.018;21.036;2022-12-18T10:59:09;102386.91;;;-1.46;84.50
35507;BME280;36461;52.018;21.036;2022-12-18T11:01:49;102386.25;;;-1.50;84.00
35507;BME280;36461;52.018;21.036;2022-12-18T11:04:22;102390.34;;;-1.54;84.37
35507;BME280;36461;52.018;21.036;2022-12-18T11:07:03;102394.09;;;-1.56;84.35
35507;BME280;36461;52.018;21.036;2022-12-18T11:09:32;102399.33;;;-1.53;84.87
35507;BME280;36461;52.018;21.036;2022-12-18T11:14:46;102398.75;;;-1.47;84.55
35507;BME280;36461;52.018;21.036;2022-12-18T11:17:28;102390.97;;;-1.50;84.37
35507;BME280;36461;52.018;21.036;2022-12-18T11:19:58;102390.27;;;-1.56;84.21
35507;BME280;36461;52.018;21.036;2022-12-18T11:22:31;102395.19;;;-1.59;83.84
35507;BME280;36461;52.018;21.036;2022-12-18T11:25:04;102394.62;;;-1.61;83.90
35507;BME280;36461;52.018;21.036;2022-12-18T11:27:33;102353.13;;;-1.77;84.02
35507;BME280;36461;52.018;21.036;2022-12-18T11:32:53;102388.37;;;-1.60;84.36
35507;BME280;36461;52.018;21.036;2022-12-18T11:35:49;102386.80;;;-1.48;84.34
35507;BME280;36461;52.018;21.036;2022-12-18T11:38:27;102390.08;;;-1.42;84.31
35507;BME280;36461;52.018;21.036;2022-12-18T11:46:37;102393.50;;;-1.15;84.19
35507;BME280;36461;52.018;21.036;2022-12-18T11:49:25;102398.80;;;-1.11;84.21
35507;BME280;36461;52.018;21.036;2022-12-18T11:54:43;102397.95;;;-1.11;83.75
35507;BME280;36461;52.018;21.036;2022-12-18T11:59:59;102405.25;;;-1.09;83.76
35507;BME280;36461;52.018;21.036;2022-12-18T12:03:18;102405.17;;;-1.11;83.79
35507;BME280;36461;52.018;21.036;2022-12-18T12:17:34;102397.95;;;-1.20;83.45
35507;BME280;36461;52.018;21.036;2022-12-18T12:23:05;102413.19;;;-1.29;83.11
35507;BME280;36461;52.018;21.036;2022-12-18T12:26:01;102410.27;;;-1.29;82.97
35507;BME280;36461;52.018;21.036;2022-12-18T12:31:41;102411.98;;;-1.28;83.17
35507;BME280;36461;52.018;21.036;2022-12-18T12:39:47;102425.72;;;-1.34;82.78
35507;BME280;36461;52.018;21.036;2022-12-18T12:42:20;102433.77;;;-1.43;82.62
35507;BME280;36461;52.018;21.036;2022-12-18T12:45:22;102442.47;;;-1.47;82.74
35507;BME280;36461;52.018;21.036;2022-12-18T12:47:55;102441.89;;;-1.42;82.93
35507;BME280;36461;52.018;21.036;2022-12-18T12:50:24;102439.58;;;-1.45;82.84
35507;BME280;36461;52.018;21.036;2022-12-18T12:52:53;102453.59;;;-1.45;82.66
35507;BME280;36461;52.018;21.036;2022-12-18T12:55:26;102448.05;;;-1.46;82.75
35507;BME280;36461;52.018;21.036;2022-12-18T13:01:00;102449.30;;;-1.55;83.17
35507;BME280;36461;52.018;21.036;2022-12-18T13:03:43;102453.12;;;-1.55;83.47
35507;BME280;36461;52.018;21.036;2022-12-18T13:06:43;102459.89;;;-1.55;83.27
35507;BME280;36461;52.018;21.036;2022-12-18T13:09:15;102469.12;;;-1.57;83.11
35507;BME280;36461;52.018;21.036;2022-12-18T13:11:46;102472.41;;;-1.60;83.39
35507;BME280;36461;52.018;21.036;2022-12-18T13:14:37;102476.61;;;-1.60;83.29
35507;BME280;36461;52.018;21.036;2022-12-18T13:17:27;102488.86;;;-1.61;83.37
35507;BME280;36461;52.018;21.036;2022-12-18T13:20:07;102490.84;;;-1.64;83.13
35507;BME280;36461;52.018;21.036;2022-12-18T13:22:47;102498.56;;;-1.71;83.26
35507;BME280;36461;52.018;21.036;2022-12-18T13:25:33;102495.86;;;-1.74;83.23
35507;BME280;36461;52.018;21.036;2022-12-18T13:38:43;102496.28;;;-1.82;83.57
35507;BME280;36461;52.018;21.036;2022-12-18T13:43:46;102492.83;;;-1.91;83.23
35507;BME280;36461;52.018;21.036;2022-12-18T13:46:29;102494.81;;;-2.02;82.93
35507;BME280;36461;52.018;21.036;2022-12-18T13:49:03;102497.64;;;-2.12;82.98
35507;BME280;36461;52.018;21.036;2022-12-18T13:51:33;102500.44;;;-2.16;83.14
35507;BME280;36461;52.018;21.036;2022-12-18T13:54:06;102497.48;;;-2.15;83.43
35507;BME280;36461;52.018;21.036;2022-12-18T13:56:43;102503.44;;;-2.15;83.42
35507;BME280;36461;52.018;21.036;2022-12-18T13:59:33;102507.59;;;-2.17;83.32
35507;BME280;36461;52.018;21.036;2022-12-18T14:02:17;102507.51;;;-2.18;83.49
35507;BME280;36461;52.018;21.036;2022-12-18T14:04:49;102501.94;;;-2.20;83.51
35507;BME280;36461;52.018;21.036;2022-12-18T14:07:28;102511.81;;;-2.17;83.79
35507;BME280;36461;52.018;21.036;2022-12-18T14:09:58;102523.07;;;-2.21;83.56
35507;BME280;36461;52.018;21.036;2022-12-18T14:12:29;102515.42;;;-2.29;83.39
35507;BME280;36461;52.018;21.036;2022-12-18T14:20:54;102518.53;;;-2.26;83.95
35507;BME280;36461;52.018;21.036;2022-12-18T14:23:36;102527.98;;;-2.32;83.81
35507;BME280;36461;52.018;21.036;2022-12-18T14:26:22;102540.05;;;-2.36;83.98
35507;BME280;36461;52.018;21.036;2022-12-18T14:28:53;102541.24;;;-2.38;83.94
35507;BME280;36461;52.018;21.036;2022-12-18T14:31:23;102543.67;;;-2.39;84.15
35507;BME280;36461;52.018;21.036;2022-12-18T14:33:52;102542.89;;;-2.38;84.05